createdAt,value
2018-12-23T00:02:07.210Z,15.20
2018-12-23T00:04:38.002Z,15.50
2018-12-23T00:07:07.775Z,15.32
2018-12-23T00:09:41.878Z,15.51
2018-12-23T00:12:16.334Z,15.57
2018-12-23T00:14:47.667Z,15.33
2018-12-23T00:17:24.506Z,15.44
2018-12-23T00:19:57.982Z,15.76
2018-12-23T00:22:30.890Z,15.72
2018-12-23T00:25:03.219Z,15.55
2018-12-23T00:27:33.470Z,15.55
2018-12-23T00:30:04.120Z,15.01
2018-12-23T00:32:33.954Z,15.38
2018-12-23T00:35:04.935Z,15.58
2018-12-23T00:37:35.122Z,15.61
2018-12-23T00:40:04.874Z,15.15
2018-12-23T00:42:34.599Z,15.05
2018-12-23T00:45:04.051Z,15.42
2018-12-23T00:47:36.076Z,15.66
2018-12-23T00:50:08.548Z,15.56
2018-12-23T00:52:38.384Z,15.65
2018-12-23T00:55:09.370Z,15.95
2018-12-23T00:57:42.129Z,15.49
2018-12-23T01:00:12.435Z,15.28
2018-12-23T01:02:41.670Z,15.76
2018-12-23T01:05:11.039Z,15.92
2018-12-23T01:07:41.641Z,15.82
2018-12-23T01:10:11.942Z,15.64
2018-12-23T01:12:42.584Z,15.95
2018-12-23T01:15:12.036Z,15.26
2018-12-23T01:17:42.723Z,15.82
2018-12-23T01:20:12.192Z,15.87
2018-12-23T01:22:41.601Z,15.24
2018-12-23T01:25:13.565Z,15.01
2018-12-23T01:27:43.640Z,15.27
2018-12-23T01:30:14.872Z,15.24
2018-12-23T01:32:46.079Z,15.15
2018-12-23T01:35:16.718Z,15.10
2018-12-23T01:37:47.997Z,15.22
2018-12-23T01:40:20.336Z,14.92
2018-12-23T01:42:49.535Z,14.86
2018-12-23T01:45:19.247Z,14.89
2018-12-23T01:47:48.532Z,14.88
2018-12-23T01:50:18.758Z,14.73
2018-12-23T01:52:48.618Z,14.98
2018-12-23T01:55:18.538Z,14.35
2018-12-23T01:57:49.474Z,14.28
2018-12-23T02:00:18.831Z,14.08
2018-12-23T02:02:48.689Z,14.76
2018-12-23T02:05:20.305Z,14.66
2018-12-23T02:07:50.943Z,14.96
2018-12-23T02:10:23.440Z,15.18
2018-12-23T02:12:54.462Z,15.33
2018-12-23T02:15:23.709Z,14.53
2018-12-23T02:17:54.127Z,14.19
2018-12-23T02:20:24.684Z,14.11
2018-12-23T02:22:59.801Z,14.51
2018-12-23T02:25:29.126Z,14.95
2018-12-23T02:28:01.499Z,15.17
2018-12-23T02:30:32.527Z,14.97
2018-12-23T02:33:01.893Z,14.76
2018-12-23T02:35:31.801Z,14.75
2018-12-23T02:38:04.084Z,14.55
2018-12-23T02:40:33.279Z,14.58
2018-12-23T02:43:02.556Z,14.91
2018-12-23T02:45:37.452Z,14.13
2018-12-23T02:48:09.928Z,14.78
2018-12-23T02:50:44.495Z,13.86
2018-12-23T02:53:18.704Z,14.20
2018-12-23T02:55:54.155Z,14.54
2018-12-23T02:58:25.982Z,14.63
2018-12-23T03:00:58.764Z,14.19
2018-12-23T03:03:29.211Z,14.60
2018-12-23T03:06:05.709Z,14.72
2018-12-23T03:08:33.953Z,14.51
2018-12-23T03:11:03.779Z,14.91
2018-12-23T03:13:34.015Z,14.83
2018-12-23T03:16:04.845Z,13.37
2018-12-23T03:18:35.996Z,14.18
2018-12-23T03:21:06.048Z,13.81
2018-12-23T03:23:35.284Z,14.42
2018-12-23T03:26:05.283Z,14.50
2018-12-23T03:28:35.083Z,14.10
2018-12-23T03:31:05.123Z,14.25
2018-12-23T03:33:34.343Z,14.12
2018-12-23T03:36:04.591Z,14.58
2018-12-23T03:38:34.403Z,14.77
2018-12-23T03:41:04.299Z,14.66
2018-12-23T03:43:34.621Z,14.59
2018-12-23T03:46:03.950Z,14.89
2018-12-23T03:48:34.807Z,14.82
2018-12-23T03:51:05.539Z,15.29
2018-12-23T03:53:34.761Z,15.47
2018-12-23T03:56:05.602Z,15.19
2018-12-23T03:58:38.819Z,15.00
2018-12-23T04:01:11.131Z,14.72
2018-12-23T04:03:41.822Z,14.91
2018-12-23T04:06:24.443Z,15.02
2018-12-23T04:08:54.580Z,14.98
2018-12-23T04:11:25.967Z,15.07
2018-12-23T04:13:59.226Z,14.99
2018-12-23T04:16:31.900Z,14.98
2018-12-23T04:19:01.430Z,14.65
2018-12-23T04:21:30.639Z,14.85
2018-12-23T04:24:00.902Z,15.09
2018-12-23T04:26:30.868Z,14.82
2018-12-23T04:29:03.093Z,15.11
2018-12-23T04:31:32.345Z,15.36
2018-12-23T04:34:02.410Z,14.70
2018-12-23T04:41:57.476Z,14.66
2018-12-23T04:44:47.963Z,14.85
2018-12-23T04:47:20.020Z,14.77
2018-12-23T04:49:59.669Z,15.12
2018-12-23T04:52:33.279Z,14.95
2018-12-23T04:55:10.823Z,15.36
2018-12-23T04:57:45.063Z,15.62
2018-12-23T05:00:19.530Z,15.68
2018-12-23T05:02:52.274Z,15.25
2018-12-23T05:05:25.798Z,15.35
2018-12-23T05:07:56.558Z,15.54
2018-12-23T05:10:33.074Z,15.72
2018-12-23T05:13:10.471Z,15.45
2018-12-23T05:15:43.787Z,15.52
2018-12-23T05:18:21.388Z,15.60
2018-12-23T05:20:54.885Z,15.84
2018-12-23T05:23:30.722Z,15.69
2018-12-23T05:26:04.097Z,15.33
2018-12-23T05:28:37.073Z,15.44
2018-12-23T05:31:10.193Z,15.59
2018-12-23T05:33:45.622Z,15.47
2018-12-23T05:36:24.582Z,14.98
2018-12-23T05:38:58.889Z,15.52
2018-12-23T05:41:33.342Z,15.30
2018-12-23T05:44:06.505Z,14.69
2018-12-23T05:46:44.739Z,15.34
2018-12-23T05:49:21.032Z,15.32
2018-12-23T05:51:53.896Z,15.14
2018-12-23T05:54:25.443Z,15.58
2018-12-23T05:56:57.611Z,15.47
2018-12-23T05:59:31.728Z,15.70
2018-12-23T06:02:05.209Z,15.51
2018-12-23T06:04:58.093Z,15.66
2018-12-23T06:07:35.665Z,15.67
2018-12-23T06:10:19.082Z,15.78
2018-12-23T06:12:57.939Z,15.33
2018-12-23T06:15:31.207Z,15.48
2018-12-23T06:18:10.455Z,15.62
2018-12-23T06:20:42.813Z,15.81
2018-12-23T06:23:16.227Z,15.87
2018-12-23T06:25:48.886Z,15.69
2018-12-23T06:28:19.934Z,15.78
2018-12-23T06:30:57.019Z,15.67
2018-12-23T06:33:27.759Z,15.35
2018-12-23T06:36:00.266Z,15.62
2018-12-23T06:38:31.683Z,15.50
2018-12-23T06:41:04.491Z,15.64
2018-12-23T06:43:37.784Z,15.57
2018-12-23T06:46:17.073Z,15.44
2018-12-23T06:48:49.395Z,15.48
2018-12-23T06:51:20.746Z,15.30
2018-12-23T06:53:53.514Z,15.62
2018-12-23T06:56:27.335Z,15.49
2018-12-23T06:59:08.569Z,15.45
2018-12-23T07:01:45.723Z,15.63
2018-12-23T07:04:20.657Z,15.18
2018-12-23T07:06:54.730Z,15.34
2018-12-23T07:09:30.918Z,15.58
2018-12-23T07:12:04.655Z,15.50
2018-12-23T07:14:38.272Z,15.28
2018-12-23T07:17:20.111Z,15.48
2018-12-23T07:19:51.741Z,15.09
2018-12-23T07:22:31.068Z,15.06
2018-12-23T07:25:02.826Z,15.21
2018-12-23T07:27:36.076Z,15.38
2018-12-23T07:30:16.951Z,15.39
2018-12-23T07:32:51.501Z,15.40
2018-12-23T07:35:24.648Z,15.50
2018-12-23T07:38:12.250Z,15.45
2018-12-23T07:40:44.802Z,15.71
2018-12-23T07:43:28.852Z,14.99
2018-12-23T07:46:02.494Z,15.42
2018-12-23T07:48:38.924Z,15.47
2018-12-23T07:51:14.706Z,15.50
2018-12-23T07:53:51.371Z,15.71
2018-12-23T07:56:23.644Z,15.59
2018-12-23T07:59:06.238Z,15.98
2018-12-23T08:01:40.576Z,15.89
2018-12-23T08:04:23.309Z,16.12
2018-12-23T08:07:07.793Z,16.23
2018-12-23T08:09:45.575Z,16.37
2018-12-23T08:12:16.761Z,16.36
2018-12-23T08:14:50.486Z,15.81
2018-12-23T08:17:21.862Z,15.25
2018-12-23T08:19:56.626Z,15.77
2018-12-23T08:22:30.248Z,15.88
2018-12-23T08:25:04.019Z,15.84
2018-12-23T08:27:39.378Z,15.81
2018-12-23T08:30:16.073Z,15.94
2018-12-23T08:32:51.452Z,16.06
2018-12-23T08:35:23.053Z,16.06
2018-12-23T08:38:02.012Z,15.93
2018-12-23T08:40:37.103Z,15.96
2018-12-23T08:43:10.831Z,16.09
2018-12-23T08:45:46.842Z,16.38
2018-12-23T08:48:23.208Z,16.32
2018-12-23T08:50:56.617Z,16.22
2018-12-23T08:53:32.525Z,16.34
2018-12-23T08:56:04.562Z,16.55
2018-12-23T08:58:36.042Z,16.60
2018-12-23T09:01:07.499Z,16.58
2018-12-23T09:03:41.607Z,16.59
2018-12-23T09:06:17.486Z,16.43
2018-12-23T09:08:51.751Z,16.69
2018-12-23T09:11:27.797Z,16.62
2018-12-23T09:14:04.564Z,15.94
2018-12-23T09:16:42.925Z,16.24
2018-12-23T09:19:18.174Z,16.50
2018-12-23T09:21:51.337Z,16.68
2018-12-23T09:24:25.889Z,16.26
2018-12-23T09:27:03.900Z,16.61
2018-12-23T09:29:36.568Z,16.75
2018-12-23T09:32:07.561Z,16.84
2018-12-23T09:34:39.289Z,16.76
2018-12-23T09:37:16.006Z,16.63
2018-12-23T09:39:53.667Z,16.73
2018-12-23T09:42:29.152Z,16.79
2018-12-23T09:45:04.005Z,16.77
2018-12-23T09:47:37.171Z,16.73
2018-12-23T09:50:09.580Z,16.67
2018-12-23T09:52:41.621Z,16.65
2018-12-23T09:55:12.324Z,16.39
2018-12-23T09:57:46.384Z,16.49
2018-12-23T10:00:21.028Z,16.54
2018-12-23T10:02:53.319Z,16.29
2018-12-23T10:05:29.036Z,16.51
2018-12-23T10:08:09.921Z,16.60
2018-12-23T10:10:38.445Z,16.70
2018-12-23T10:13:39.245Z,16.61
2018-12-23T10:16:12.634Z,16.55
2018-12-23T10:18:43.675Z,16.67
2018-12-23T10:21:21.389Z,16.56
2018-12-23T10:23:54.862Z,16.60
2018-12-23T10:26:28.092Z,16.86
2018-12-23T10:29:01.686Z,16.90
2018-12-23T10:31:36.108Z,16.71
2018-12-23T10:34:09.286Z,16.35
2018-12-23T10:36:43.885Z,16.29
2018-12-23T10:39:23.517Z,16.27
2018-12-23T10:41:55.224Z,16.30
2018-12-23T10:44:28.220Z,16.26
2018-12-23T10:46:59.382Z,15.96
2018-12-23T10:49:35.018Z,16.09
2018-12-23T10:52:06.655Z,16.17
2018-12-23T10:54:40.489Z,16.23
2018-12-23T10:57:14.140Z,16.19
2018-12-23T10:59:49.515Z,16.35
2018-12-23T11:02:25.618Z,16.30
2018-12-23T11:04:59.354Z,16.20
2018-12-23T11:07:30.512Z,16.54
2018-12-23T11:10:07.119Z,16.63
2018-12-23T11:12:40.310Z,16.53
2018-12-23T11:15:13.163Z,16.61
2018-12-23T11:18:00.401Z,16.73
2018-12-23T11:20:34.351Z,16.87
2018-12-23T11:23:12.351Z,16.93
2018-12-23T11:25:45.096Z,16.98
2018-12-23T11:28:18.437Z,16.92
2018-12-23T11:30:50.773Z,17.08
2018-12-23T11:33:22.338Z,17.07
2018-12-23T11:35:59.306Z,16.92
2018-12-23T11:38:37.226Z,17.00
2018-12-23T11:41:15.014Z,16.29
2018-12-23T11:43:47.667Z,16.84
2018-12-23T11:46:24.696Z,16.74
2018-12-23T11:48:59.992Z,16.84
2018-12-23T11:51:40.504Z,17.03
2018-12-23T11:54:27.269Z,17.08
2018-12-23T11:56:59.193Z,16.86
2018-12-23T11:59:49.574Z,16.68
2018-12-23T12:02:22.336Z,16.39
2018-12-23T12:04:56.425Z,15.71
2018-12-23T12:07:29.675Z,15.76
2018-12-23T12:10:03.273Z,16.09
2018-12-23T12:12:42.997Z,15.88
2018-12-23T12:15:18.473Z,15.39
2018-12-23T12:17:54.504Z,15.93
2018-12-23T12:20:28.074Z,14.76
2018-12-23T12:23:04.301Z,15.31
2018-12-23T12:25:40.959Z,15.40
2018-12-23T12:28:14.972Z,14.20
2018-12-23T12:30:51.237Z,15.08
2018-12-23T12:33:23.244Z,15.07
2018-12-23T12:35:58.102Z,15.46
2018-12-23T12:38:33.280Z,15.14
2018-12-23T12:41:05.952Z,14.88
2018-12-23T12:43:43.544Z,15.17
2018-12-23T12:46:17.893Z,15.35
2018-12-23T12:48:51.365Z,15.20
2018-12-23T12:51:27.346Z,15.59
2018-12-23T12:54:03.708Z,15.72
2018-12-23T12:56:37.020Z,15.71
2018-12-23T12:59:11.910Z,16.16
2018-12-23T13:01:48.636Z,16.20
2018-12-23T13:04:22.840Z,16.32
2018-12-23T13:06:57.530Z,16.49
2018-12-23T13:09:29.800Z,16.66
2018-12-23T13:12:01.780Z,16.64
2018-12-23T13:14:35.154Z,16.67
2018-12-23T13:17:08.652Z,16.77
2018-12-23T13:19:40.325Z,16.83
2018-12-23T13:22:14.541Z,16.90
2018-12-23T13:24:59.937Z,16.90
2018-12-23T13:27:36.461Z,16.82
2018-12-23T13:30:10.558Z,16.60
2018-12-23T13:32:41.903Z,16.66
2018-12-23T13:35:15.633Z,16.80
2018-12-23T13:37:48.464Z,16.84
2018-12-23T13:40:44.694Z,16.89
2018-12-23T13:43:48.712Z,16.86
2018-12-23T13:46:55.594Z,16.89
2018-12-23T13:50:07.047Z,16.89
2018-12-23T13:53:18.688Z,16.70
2018-12-23T13:56:41.401Z,16.66
2018-12-23T13:59:41.687Z,16.70
2018-12-23T14:02:31.305Z,16.26
2018-12-23T14:05:28.424Z,16.46
2018-12-23T14:08:27.070Z,16.31
2018-12-23T14:11:23.844Z,16.16
2018-12-23T14:13:55.067Z,15.85
2018-12-23T14:16:31.685Z,15.83
2018-12-23T14:19:07.933Z,15.49
2018-12-23T14:21:44.201Z,15.25
2018-12-23T14:24:36.645Z,15.32
2018-12-23T14:27:13.975Z,15.59
2018-12-23T14:29:57.437Z,15.21
2018-12-23T14:32:35.324Z,15.28
2018-12-23T14:35:15.335Z,14.70
2018-12-23T14:37:56.095Z,14.93
2018-12-23T14:40:46.308Z,14.90
2018-12-23T14:43:18.405Z,14.96
2018-12-23T14:45:56.108Z,14.04
2018-12-23T14:48:31.900Z,14.34
2018-12-23T14:51:04.491Z,14.15
2018-12-23T14:53:36.560Z,14.16
2018-12-23T14:56:10.489Z,14.27
2018-12-23T14:58:47.416Z,14.70
2018-12-23T15:01:20.324Z,14.35
2018-12-23T15:03:56.229Z,14.11
2018-12-23T15:06:33.265Z,14.61
2018-12-23T15:09:09.800Z,14.12
2018-12-23T15:11:45.451Z,14.31
2018-12-23T15:14:18.674Z,14.17
2018-12-23T15:16:54.700Z,14.14
2018-12-23T15:19:27.295Z,14.39
2018-12-23T15:21:58.898Z,14.62
2018-12-23T15:24:37.490Z,14.41
2018-12-23T15:27:10.358Z,14.28
2018-12-23T15:29:45.319Z,13.40
2018-12-23T15:32:16.058Z,13.56
2018-12-23T15:34:49.692Z,13.66
2018-12-23T15:37:23.983Z,13.32
2018-12-23T15:39:59.623Z,13.59
2018-12-23T15:42:51.880Z,14.27
2018-12-23T15:45:34.376Z,14.06
2018-12-23T15:48:08.776Z,14.24
2018-12-23T15:50:41.129Z,14.51
2018-12-23T15:53:14.066Z,14.47
2018-12-23T15:55:46.443Z,14.06
2018-12-23T15:58:19.760Z,13.97
2018-12-23T16:00:52.439Z,14.02
2018-12-23T16:03:24.017Z,14.24
2018-12-23T16:05:58.914Z,14.44
2018-12-23T16:08:34.046Z,14.50
2018-12-23T16:11:05.449Z,13.54
2018-12-23T16:13:36.242Z,14.13
2018-12-23T16:16:07.010Z,14.35
2018-12-23T16:18:39.658Z,14.23
2018-12-23T16:21:13.833Z,14.12
2018-12-23T16:24:06.689Z,14.41
2018-12-23T16:26:48.314Z,14.09
2018-12-23T16:29:23.722Z,14.09
2018-12-23T16:32:00.368Z,14.14
2018-12-23T16:37:34.814Z,14.15
2018-12-23T16:40:11.315Z,13.40
2018-12-23T16:42:43.057Z,13.71
2018-12-23T16:45:15.860Z,13.69
2018-12-23T16:47:52.430Z,13.94
2018-12-23T16:50:23.723Z,13.96
2018-12-23T16:53:01.704Z,14.01
2018-12-23T16:55:37.746Z,14.57
2018-12-23T16:58:10.978Z,14.54
2018-12-23T17:00:45.890Z,14.24
2018-12-23T17:03:31.747Z,14.44
2018-12-23T17:06:06.443Z,14.54
2018-12-23T17:08:48.026Z,14.42
2018-12-23T17:11:23.339Z,14.72
2018-12-23T17:14:00.156Z,14.85
2018-12-23T17:16:36.411Z,14.66
2018-12-23T17:19:18.412Z,14.63
2018-12-23T17:21:58.346Z,14.75
2018-12-23T17:24:33.194Z,14.97
2018-12-23T17:27:06.445Z,14.99
2018-12-23T17:29:47.149Z,14.93
2018-12-23T17:32:25.294Z,15.01
2018-12-23T17:34:57.161Z,15.33
2018-12-23T17:37:31.643Z,15.25
2018-12-23T17:40:16.413Z,15.02
2018-12-23T17:42:49.107Z,14.68
2018-12-23T17:45:27.396Z,14.47
2018-12-23T17:48:02.075Z,14.79
2018-12-23T17:50:35.939Z,15.01
2018-12-23T17:53:33.261Z,15.32
2018-12-23T17:56:50.078Z,15.31
2018-12-23T17:59:25.921Z,15.20
2018-12-23T18:02:02.081Z,15.48
2018-12-23T18:04:34.882Z,15.46
2018-12-23T18:07:17.200Z,15.31
2018-12-23T18:09:51.379Z,15.35
2018-12-23T18:12:24.091Z,15.38
2018-12-23T18:14:55.880Z,14.96
2018-12-23T18:17:28.106Z,15.45
2018-12-23T18:20:03.481Z,15.43
2018-12-23T18:22:41.569Z,15.61
2018-12-23T18:25:22.356Z,15.74
2018-12-23T18:27:55.506Z,15.91
2018-12-23T18:30:29.855Z,15.97
2018-12-23T18:33:05.843Z,15.92
2018-12-23T18:35:37.491Z,15.91
2018-12-23T18:38:14.572Z,15.68
2018-12-23T18:40:50.104Z,15.93
2018-12-23T18:43:22.504Z,15.81
2018-12-23T18:46:14.773Z,15.65
2018-12-23T18:48:55.399Z,15.16
2018-12-23T18:51:37.464Z,15.28
2018-12-23T18:54:12.353Z,15.54
2018-12-23T18:56:47.237Z,15.69
2018-12-23T18:59:20.453Z,15.78
2018-12-23T19:02:05.955Z,15.96
2018-12-23T19:04:41.195Z,15.95
2018-12-23T19:07:17.795Z,15.83
2018-12-23T19:10:41.734Z,16.08
2018-12-23T19:13:58.478Z,16.18
2018-12-23T19:17:09.359Z,15.88
2018-12-23T19:20:05.350Z,16.21
2018-12-23T19:23:44.123Z,16.25
2018-12-23T19:26:47.287Z,16.27
2018-12-23T19:30:04.714Z,16.14
2018-12-23T19:33:08.559Z,16.29
2018-12-23T19:36:19.093Z,16.47
2018-12-23T19:39:24.749Z,16.62
2018-12-23T19:42:44.863Z,16.68
2018-12-23T19:46:03.518Z,16.74
2018-12-23T19:49:11.834Z,16.66
2018-12-23T19:52:35.813Z,16.84
2018-12-23T19:55:56.000Z,16.84
2018-12-23T19:59:44.485Z,16.87
2018-12-23T20:02:44.071Z,16.76
2018-12-23T20:05:59.699Z,17.00
2018-12-23T20:09:30.380Z,17.08
2018-12-23T20:12:52.159Z,16.98
2018-12-23T20:15:57.977Z,17.04
2018-12-23T20:19:26.290Z,16.46
2018-12-23T20:22:26.553Z,16.87
2018-12-23T20:25:19.096Z,16.68
2018-12-23T20:28:28.922Z,16.92
2018-12-23T20:31:35.327Z,16.88
2018-12-23T20:35:08.933Z,16.76
2018-12-23T20:38:16.386Z,16.59
2018-12-23T20:41:33.952Z,16.72
2018-12-23T20:44:32.730Z,16.74
2018-12-23T20:47:38.185Z,16.77
2018-12-23T20:50:52.099Z,16.70
2018-12-23T20:54:20.976Z,16.70
2018-12-23T20:57:36.433Z,16.97
2018-12-23T21:01:06.949Z,16.70
2018-12-23T21:04:20.998Z,16.69
2018-12-23T21:07:47.750Z,16.12
2018-12-23T21:11:16.001Z,15.62
2018-12-23T21:14:46.267Z,15.43
2018-12-23T21:18:08.154Z,15.47
2018-12-23T21:21:18.016Z,15.48
2018-12-23T21:24:44.270Z,15.44
2018-12-23T21:27:53.002Z,15.58
2018-12-23T21:31:02.342Z,14.94
2018-12-23T21:34:16.266Z,14.89
2018-12-23T21:37:33.927Z,14.57
2018-12-23T21:40:58.645Z,14.25
2018-12-23T21:44:07.537Z,14.48
2018-12-23T21:47:35.079Z,14.28
2018-12-23T21:50:37.205Z,14.66
2018-12-23T21:54:04.973Z,14.89
2018-12-23T21:57:20.265Z,14.61
2018-12-23T22:00:27.251Z,14.50
2018-12-23T22:03:58.202Z,14.69
2018-12-23T22:07:23.391Z,14.11
2018-12-23T22:10:21.508Z,13.94
2018-12-23T22:13:25.946Z,14.02
2018-12-23T22:15:59.616Z,14.02
2018-12-23T22:18:44.443Z,13.97
2018-12-23T22:21:23.214Z,13.59
2018-12-23T22:23:59.687Z,13.84
2018-12-23T22:26:38.313Z,13.67
2018-12-23T22:29:13.447Z,13.32
2018-12-23T22:31:45.571Z,13.29
2018-12-23T22:34:24.598Z,12.54
2018-12-23T22:37:00.145Z,13.31
2018-12-23T22:39:38.977Z,13.42
2018-12-23T22:42:11.554Z,13.16
2018-12-23T22:44:47.359Z,13.23
2018-12-23T22:47:18.607Z,13.39
2018-12-23T22:49:56.478Z,13.31
2018-12-23T22:52:30.461Z,13.25
2018-12-23T22:55:26.347Z,13.39
2018-12-23T22:58:01.963Z,13.32
2018-12-23T23:00:35.110Z,13.19
2018-12-23T23:03:09.502Z,13.66
2018-12-23T23:05:54.118Z,13.19
2018-12-23T23:08:25.926Z,13.40
2018-12-23T23:10:57.740Z,13.66
2018-12-23T23:13:36.010Z,13.93
2018-12-23T23:16:17.766Z,13.60
2018-12-23T23:18:54.339Z,13.48
2018-12-23T23:21:35.707Z,13.52
2018-12-23T23:24:09.750Z,13.60
2018-12-23T23:26:42.557Z,13.81
2018-12-23T23:29:18.683Z,13.97
2018-12-23T23:31:53.962Z,14.09
2018-12-23T23:34:31.950Z,13.86
2018-12-23T23:37:05.716Z,13.51
2018-12-23T23:39:37.416Z,13.88
2018-12-23T23:42:13.065Z,14.12
2018-12-23T23:44:47.550Z,13.70
2018-12-23T23:47:21.888Z,13.63
2018-12-23T23:50:03.277Z,14.03
2018-12-23T23:52:37.083Z,13.08
2018-12-23T23:55:12.190Z,13.42
2018-12-23T23:57:44.887Z,13.66
